Time;durP1;ratioP1;P1;durP2;ratioP2;P2;SDS_P1;SDS_P2;PMS_P1;PMS_P2;Temp;Humidity;BMP_temperature;BMP_pressure;BME280_temperature;BME280_humidity;BME280_pressure;Samples;Min_cycle;Max_cycle;Signal;HPM_P1;HPM_P2
2023/06/14 00:01:34;;;;;;;1.17;0.97;;;13.40;88.60;13.50;100657.00;;;;4969504;28;112965;-69
2023/06/14 00:04:04;;;;;;;1.00;0.70;;;13.40;88.70;13.40;100657.00;;;;4955108;28;85244;-68
2023/06/14 00:06:30;;;;;;;1.73;1.20;;;13.40;90.00;13.40;100652.00;;;;4971927;28;83636;-67
2023/06/14 00:08:56;;;;;;;1.97;1.17;;;13.40;90.20;13.40;100650.00;;;;4971059;28;108884;-68
2023/06/14 00:11:21;;;;;;;0.87;0.70;;;13.30;90.90;13.40;100655.00;;;;4974662;28;112442;-68
2023/06/14 00:13:47;;;;;;;1.13;0.93;;;13.30;91.20;13.30;100645.00;;;;4968189;28;112932;-67
2023/06/14 00:16:13;;;;;;;1.33;0.90;;;13.30;91.90;13.30;100634.00;;;;4964772;28;108671;-69
2023/06/14 00:18:38;;;;;;;0.97;0.93;;;13.30;92.00;13.30;100637.00;;;;4968472;28;105308;-68
2023/06/14 00:21:05;;;;;;;1.00;0.87;;;13.20;92.20;13.20;100641.00;;;;4966666;28;113518;-68
2023/06/14 00:23:30;;;;;;;1.37;1.27;;;13.20;92.50;13.20;100637.00;;;;4967173;28;103615;-68
2023/06/14 00:25:56;;;;;;;1.57;1.00;;;13.20;92.70;13.20;100635.00;;;;4970145;28;110747;-69
2023/06/14 00:28:22;;;;;;;1.50;0.87;;;13.10;92.80;13.10;100633.00;;;;4957692;28;108626;-68
2023/06/14 00:30:48;;;;;;;0.80;0.50;;;13.10;92.90;13.10;100632.00;;;;4969744;28;85017;-67
2023/06/14 00:33:13;;;;;;;1.23;0.93;;;13.10;93.20;13.10;100636.00;;;;4970169;28;84563;-67
2023/06/14 00:35:39;;;;;;;1.80;1.37;;;13.10;93.30;13.00;100632.00;;;;4971571;28;109922;-67
2023/06/14 00:38:05;;;;;;;1.50;1.40;;;13.00;93.50;13.00;100628.00;;;;4969513;28;82692;-67
2023/06/14 00:40:31;;;;;;;2.03;1.30;;;13.00;93.50;13.00;100630.00;;;;4966779;28;113086;-69
2023/06/14 00:42:56;;;;;;;1.40;1.17;;;13.00;93.60;12.90;100631.00;;;;4969903;28;106312;-66
2023/06/14 00:45:22;;;;;;;0.73;0.73;;;12.90;93.70;12.90;100627.00;;;;4970955;28;106045;-66
2023/06/14 00:47:51;;;;;;;2.43;0.93;;;12.90;93.80;12.90;100626.00;;;;4970142;28;103631;-67
2023/06/14 00:50:16;;;;;;;1.07;0.50;;;13.00;93.90;12.80;100628.00;;;;4952043;28;82932;-67
2023/06/14 00:52:42;;;;;;;1.03;0.77;;;12.80;93.90;12.80;100631.00;;;;4950912;28;111984;-66
2023/06/14 00:55:08;;;;;;;1.27;0.80;;;12.80;94.10;12.70;100634.00;;;;4967320;28;83572;-69
2023/06/14 00:57:37;;;;;;;1.63;0.83;;;12.70;94.30;12.70;100628.00;;;;4967815;28;98676;-66
2023/06/14 01:00:08;;;;;;;1.00;0.87;;;12.70;94.70;12.70;100627.00;;;;4968380;28;82951;-66
2023/06/14 01:02:38;;;;;;;0.83;0.80;;;12.70;94.90;12.70;100625.00;;;;4971666;28;82866;-66
2023/06/14 01:05:07;;;;;;;2.03;0.70;;;12.70;95.10;12.70;100620.00;;;;4970481;28;82876;-66
2023/06/14 01:08:15;;;;;;;2.10;1.17;;;12.70;95.30;12.60;100629.00;;;;4949986;28;82885;-67
2023/06/14 01:11:04;;;;;;;0.60;0.60;;;12.60;95.30;12.60;100631.00;;;;4956173;28;82864;-67
2023/06/14 01:13:44;;;;;;;2.20;1.57;;;12.60;95.50;12.50;100616.00;;;;4968489;28;82560;-67
2023/06/14 01:16:10;;;;;;;1.27;1.17;;;12.60;95.50;12.50;100628.00;;;;4957310;28;85028;-66
2023/06/14 01:18:36;;;;;;;1.43;1.10;;;12.50;95.50;12.50;100628.00;;;;4946907;28;107862;-66
2023/06/14 01:21:05;;;;;;;1.17;0.80;;;12.50;95.70;12.50;100626.00;;;;4969341;28;111846;-66
2023/06/14 01:23:34;;;;;;;1.33;1.00;;;12.50;96.00;12.40;100628.00;;;;4968603;28;84194;-67
2023/06/14 01:26:03;;;;;;;1.43;0.80;;;12.50;96.20;12.40;100624.00;;;;4967811;28;82871;-67
2023/06/14 01:28:31;;;;;;;1.50;1.40;;;12.40;96.40;12.40;100628.00;;;;4967923;28;83124;-68
2023/06/14 01:31:03;;;;;;;1.43;1.10;;;12.40;96.80;12.40;100628.00;;;;4967464;28;83351;-70
2023/06/14 01:33:31;;;;;;;0.97;0.90;;;12.40;96.90;12.40;100635.00;;;;4939732;28;85169;-68
2023/06/14 01:35:57;;;;;;;0.97;0.87;;;12.30;97.00;12.30;100630.00;;;;4954413;28;82891;-68
2023/06/14 01:38:26;;;;;;;1.13;0.87;;;12.30;97.00;12.30;100630.00;;;;4971043;28;108615;-68
2023/06/14 01:40:55;;;;;;;1.20;1.10;;;12.30;97.10;12.20;100635.00;;;;4968941;28;84140;-68
2023/06/14 01:43:21;;;;;;;1.43;1.00;;;12.30;97.20;12.20;100633.00;;;;4968522;28;82617;-68
2023/06/14 01:45:49;;;;;;;1.30;1.20;;;12.20;97.20;12.10;100632.00;;;;4949104;28;109131;-67
2023/06/14 01:48:15;;;;;;;1.33;1.03;;;12.20;97.20;12.10;100631.00;;;;4953536;28;111030;-68
2023/06/14 01:50:41;;;;;;;1.87;1.07;;;12.10;97.20;12.00;100638.00;;;;4956914;28;83772;-68
2023/06/14 01:53:10;;;;;;;1.77;1.40;;;12.10;97.20;12.00;100620.00;;;;4975213;28;112418;-67
2023/06/14 01:55:38;;;;;;;1.43;1.17;;;12.00;97.40;12.00;100619.00;;;;4973997;28;89871;-67
2023/06/14 01:58:05;;;;;;;2.20;1.17;;;12.00;97.50;11.90;100617.00;;;;4971118;28;82806;-68
2023/06/14 02:00:30;;;;;;;1.13;1.03;;;11.90;97.60;11.90;100615.00;;;;4973136;28;83705;-68
2023/06/14 02:02:56;;;;;;;1.87;1.30;;;11.90;97.70;11.90;100620.00;;;;4972454;28;111829;-68
2023/06/14 02:05:24;;;;;;;1.20;1.10;;;11.90;97.80;11.80;100616.00;;;;4970390;28;83009;-67
2023/06/14 02:07:50;;;;;;;2.20;0.90;;;11.90;98.00;11.80;100618.00;;;;4957262;28;95248;-67
2023/06/14 02:10:17;;;;;;;2.30;1.10;;;11.80;98.20;11.80;100623.00;;;;4971103;28;84326;-68
2023/06/14 02:12:43;;;;;;;1.23;0.87;;;11.80;98.30;11.70;100630.00;;;;4970718;28;84066;-68
2023/06/14 02:15:16;;;;;;;1.40;1.30;;;11.80;98.50;11.70;100615.00;;;;4969234;28;82598;-67
2023/06/14 02:17:52;;;;;;;1.90;1.30;;;11.70;98.80;11.70;100625.00;;;;4971970;28;82968;-67
2023/06/14 02:20:17;;;;;;;1.30;1.03;;;11.70;99.00;11.60;100628.00;;;;4968604;28;83179;-67
2023/06/14 02:22:45;;;;;;;2.17;1.27;;;11.70;99.20;11.60;100623.00;;;;4975382;28;83760;-67
2023/06/14 02:25:10;;;;;;;1.13;1.03;;;11.60;99.30;11.50;100624.00;;;;4972405;28;82930;-67
2023/06/14 02:27:36;;;;;;;3.63;1.37;;;11.60;99.50;11.50;100630.00;;;;4972707;28;82922;-67
2023/06/14 02:30:03;;;;;;;2.77;1.37;;;11.60;99.70;11.50;100630.00;;;;4972115;27;113108;-67
2023/06/14 02:32:28;;;;;;;1.83;1.47;;;11.50;99.90;11.50;100631.00;;;;4973588;28;90111;-67
2023/06/14 02:34:54;;;;;;;1.90;1.43;;;11.50;99.90;11.40;100639.00;;;;4974594;28;110425;-67
2023/06/14 02:37:20;;;;;;;2.17;1.40;;;11.50;99.90;11.40;100634.00;;;;4972595;28;82762;-67
2023/06/14 02:39:45;;;;;;;1.50;1.10;;;11.50;99.90;11.40;100625.00;;;;4974871;28;83846;-67
2023/06/14 02:42:11;;;;;;;1.40;1.27;;;11.40;99.90;11.40;100647.00;;;;4969340;28;111941;-66
2023/06/14 02:44:37;;;;;;;2.03;0.90;;;11.40;99.90;11.40;100638.00;;;;4971535;28;82509;-66
2023/06/14 02:47:04;;;;;;;4.53;1.20;;;11.40;99.90;11.30;100642.00;;;;4968025;28;82794;-67
2023/06/14 02:49:30;;;;;;;1.43;1.33;;;11.30;99.90;11.30;100639.00;;;;4975073;28;83197;-67
2023/06/14 02:51:56;;;;;;;2.87;1.63;;;11.30;99.90;11.30;100655.00;;;;4976487;28;112137;-67
2023/06/14 02:54:22;;;;;;;1.50;1.40;;;11.30;99.90;11.30;100655.00;;;;4981045;28;106734;-67
2023/06/14 02:56:48;;;;;;;1.00;0.90;;;11.30;99.90;11.20;100651.00;;;;4969225;28;82854;-67
2023/06/14 02:59:14;;;;;;;3.40;1.20;;;11.30;99.90;11.20;100650.00;;;;4969120;28;113167;-67
2023/06/14 03:01:41;;;;;;;2.60;1.63;;;11.20;99.90;11.20;100646.00;;;;4968773;28;83692;-66
2023/06/14 03:04:09;;;;;;;2.30;1.87;;;11.30;99.90;11.30;100647.00;;;;4951664;28;83074;-66
2023/06/14 03:06:36;;;;;;;1.60;1.37;;;11.30;99.90;11.20;100656.00;;;;4970437;28;82956;-67
2023/06/14 03:09:05;;;;;;;6.37;1.37;;;11.20;99.90;11.20;100643.00;;;;4958125;28;82864;-67
2023/06/14 03:11:32;;;;;;;1.80;1.53;;;11.20;99.90;11.20;100644.00;;;;4972044;28;83365;-66
2023/06/14 03:13:58;;;;;;;2.60;1.23;;;11.20;99.90;11.20;100641.00;;;;4970515;28;109969;-67
2023/06/14 03:16:24;;;;;;;1.33;1.20;;;11.20;99.90;11.20;100655.00;;;;4968841;28;82033;-66
2023/06/14 03:18:53;;;;;;;3.03;1.57;;;11.20;99.90;11.20;100652.00;;;;4972435;28;83054;-66
2023/06/14 03:21:20;;;;;;;2.57;2.20;;;11.20;99.90;11.10;100645.00;;;;4973438;28;83937;-66
2023/06/14 03:23:46;;;;;;;1.60;1.50;;;11.20;99.90;11.10;100656.00;;;;4967644;28;83919;-65
2023/06/14 03:26:17;;;;;;;1.53;1.40;;;11.20;99.90;11.10;100655.00;;;;4970572;28;82983;-66
2023/06/14 03:28:47;;;;;;;1.93;1.47;;;11.20;99.90;11.10;100655.00;;;;4970318;28;83132;-68
2023/06/14 03:31:13;;;;;;;1.03;1.03;;;11.10;99.90;11.10;100655.00;;;;4969173;28;82998;-67
2023/06/14 03:33:39;;;;;;;1.50;1.40;;;11.20;99.90;11.10;100661.00;;;;4952118;28;87782;-67
2023/06/14 03:36:06;;;;;;;2.33;1.67;;;11.20;99.90;11.20;100669.00;;;;4972135;28;82833;-67
2023/06/14 03:38:32;;;;;;;2.07;1.53;;;11.20;99.90;11.20;100676.00;;;;4971810;28;83775;-67
2023/06/14 03:40:58;;;;;;;1.03;1.03;;;11.20;99.90;11.20;100677.00;;;;4955532;27;84478;-67
2023/06/14 03:43:24;;;;;;;1.03;0.93;;;11.20;99.90;11.20;100674.00;;;;4992370;27;96851;-67
2023/06/14 03:45:51;;;;;;;3.57;1.70;;;11.20;99.90;11.30;100677.00;;;;4990568;28;82739;-68
2023/06/14 03:48:16;;;;;;;2.00;1.73;;;11.30;99.90;11.30;100678.00;;;;4966064;28;84387;-67
2023/06/14 03:50:42;;;;;;;2.70;1.70;;;11.30;99.90;11.40;100674.00;;;;4992799;28;88455;-69
2023/06/14 03:53:08;;;;;;;2.40;2.00;;;11.40;99.90;11.40;100688.00;;;;4990231;27;82785;-68
2023/06/14 03:55:34;;;;;;;1.90;1.80;;;11.40;99.90;11.50;100690.00;;;;4988283;28;109830;-68
2023/06/14 03:58:00;;;;;;;1.70;1.50;;;11.50;99.90;11.50;100690.00;;;;4983098;27;112176;-67
2023/06/14 04:00:26;;;;;;;1.77;1.67;;;11.50;99.90;11.60;100698.00;;;;4988271;28;100225;-69
2023/06/14 04:02:53;;;;;;;2.07;1.87;;;11.50;99.90;11.70;100691.00;;;;4992298;27;83026;-67
2023/06/14 04:05:19;;;;;;;2.17;1.83;;;11.60;99.90;11.70;100702.00;;;;4989026;27;82129;-66
2023/06/14 04:07:48;;;;;;;2.17;1.80;;;11.70;99.90;11.80;100702.00;;;;4989914;28;83654;-67
2023/06/14 04:10:15;;;;;;;2.10;1.90;;;11.80;99.90;11.90;100700.00;;;;4987973;28;82692;-67
2023/06/14 04:12:42;;;;;;;12.10;2.23;;;11.80;99.90;12.00;100697.00;;;;4991846;28;83839;-67
2023/06/14 04:15:09;;;;;;;2.90;1.83;;;11.90;99.90;12.00;100701.00;;;;4987205;28;82878;-68
2023/06/14 04:17:36;;;;;;;3.13;2.00;;;12.00;99.90;12.10;100707.00;;;;4987117;27;104471;-67
2023/06/14 04:20:05;;;;;;;2.63;1.37;;;12.10;99.90;12.20;100706.00;;;;4987614;27;98706;-67
2023/06/14 04:22:31;;;;;;;2.13;2.00;;;12.10;99.90;12.20;100713.00;;;;4991221;27;82943;-66
2023/06/14 04:24:57;;;;;;;3.80;1.80;;;12.20;99.90;12.30;100712.00;;;;4987777;27;99668;-67
2023/06/14 04:27:25;;;;;;;1.63;1.47;;;12.30;99.90;12.40;100723.00;;;;4981722;28;83789;-66
2023/06/14 04:29:59;;;;;;;4.33;2.20;;;12.30;99.90;12.50;100715.00;;;;4985757;27;83763;-66
2023/06/14 04:32:26;;;;;;;2.17;2.00;;;12.40;99.90;12.60;100720.00;;;;4983978;28;82676;-67
2023/06/14 04:34:58;;;;;;;1.80;1.40;;;12.50;99.90;12.70;100717.00;;;;4985546;28;83028;-67
2023/06/14 04:37:27;;;;;;;3.63;2.00;;;12.60;99.90;12.80;100719.00;;;;4981331;28;84889;-69
2023/06/14 04:39:55;;;;;;;2.07;1.70;;;12.70;99.90;12.90;100728.00;;;;4985772;28;84646;-68
2023/06/14 04:42:24;;;;;;;2.07;1.60;;;12.80;99.90;13.00;100713.00;;;;4984661;27;82753;-67
2023/06/14 04:44:51;;;;;;;2.37;1.60;;;13.00;99.90;13.10;100717.00;;;;4982072;28;83097;-67
2023/06/14 04:47:17;;;;;;;2.03;1.83;;;13.00;99.90;13.30;100724.00;;;;4988291;28;83970;-67
2023/06/14 04:49:44;;;;;;;2.10;1.73;;;13.20;99.90;13.40;100721.00;;;;4985913;28;83124;-67
2023/06/14 04:52:12;;;;;;;2.70;1.80;;;13.30;99.90;13.60;100723.00;;;;4983055;28;83049;-67
2023/06/14 04:54:41;;;;;;;3.03;2.37;;;13.50;99.90;13.70;100722.00;;;;4986262;28;82384;-67
2023/06/14 04:57:07;;;;;;;2.23;1.60;;;13.60;99.90;13.90;100731.00;;;;4983198;27;83888;-68
2023/06/14 04:59:35;;;;;;;3.37;2.03;;;13.70;99.90;14.00;100723.00;;;;4984050;28;111230;-68
2023/06/14 05:02:01;;;;;;;4.80;2.67;;;13.90;99.90;14.10;100722.00;;;;4981747;28;83633;-68
2023/06/14 05:04:27;;;;;;;2.37;1.80;;;14.00;99.90;14.20;100722.00;;;;4983088;28;82852;-67
2023/06/14 05:06:57;;;;;;;2.90;1.97;;;14.10;99.90;14.30;100731.00;;;;4987471;28;83813;-69
2023/06/14 05:09:33;;;;;;;3.33;2.10;;;14.20;99.90;14.40;100732.00;;;;4982765;28;82926;-68
2023/06/14 05:12:00;;;;;;;2.43;2.23;;;14.30;99.90;14.50;100732.00;;;;4983644;28;83097;-68
2023/06/14 05:14:26;;;;;;;2.97;2.53;;;14.40;99.90;14.70;100738.00;;;;4987489;28;82979;-68
2023/06/14 05:16:55;;;;;;;1.57;1.33;;;14.50;99.90;14.80;100744.00;;;;4987531;28;82790;-67
2023/06/14 05:19:20;;;;;;;2.05;1.85;;;14.70;99.90;15.00;100754.00;;;;4984909;27;83749;-67
2023/06/14 05:21:47;;;;;;;3.25;2.25;;;14.80;99.90;15.00;100749.00;;;;4993711;28;110824;-69
2023/06/14 05:24:14;;;;;;;3.60;2.17;;;14.90;99.20;15.10;100755.00;;;;4985611;28;84107;-67
2023/06/14 05:26:39;;;;;;;2.17;1.98;;;15.00;98.90;15.20;100762.00;;;;4997068;28;84954;-66
2023/06/14 05:29:05;;;;;;;4.90;1.93;;;15.10;98.60;15.30;100758.00;;;;4994128;28;114020;-67
2023/06/14 05:31:31;;;;;;;2.53;2.10;;;15.20;98.30;15.40;100749.00;;;;4996957;28;83540;-67
2023/06/14 05:33:57;;;;;;;2.67;1.98;;;15.20;97.90;15.50;100756.00;;;;4993980;28;106914;-69
2023/06/14 05:36:22;;;;;;;2.67;2.42;;;15.30;97.60;15.60;100760.00;;;;4973531;28;111421;-68
2023/06/14 05:38:48;;;;;;;2.78;1.92;;;15.40;97.10;15.60;100756.00;;;;4990940;28;111018;-68
2023/06/14 05:41:14;;;;;;;2.08;1.88;;;15.50;97.00;15.80;100755.00;;;;4990283;27;109678;-67
2023/06/14 05:43:39;;;;;;;4.55;2.38;;;15.60;96.70;15.90;100756.00;;;;4993837;28;109280;-67
2023/06/14 05:46:05;;;;;;;2.15;1.98;;;15.70;96.70;16.10;100752.00;;;;4991895;27;111214;-67
2023/06/14 05:48:31;;;;;;;2.65;2.08;;;15.90;96.40;16.30;100759.00;;;;4989406;28;111748;-67
2023/06/14 05:50:57;;;;;;;2.50;1.40;;;16.10;95.70;16.40;100757.00;;;;4989382;28;111432;-66
2023/06/14 05:53:22;;;;;;;3.45;2.13;;;16.20;94.40;16.40;100753.00;;;;5001468;28;108164;-66
2023/06/14 05:55:54;;;;;;;4.43;2.50;;;16.30;94.30;16.50;100755.00;;;;4988293;27;112123;-66
2023/06/14 05:58:21;;;;;;;1.60;1.30;;;16.40;93.80;16.60;100753.00;;;;4992392;28;82748;-66
2023/06/14 06:00:47;;;;;;;1.83;1.67;;;16.40;93.40;16.70;100752.00;;;;4990149;28;82831;-67
2023/06/14 06:03:13;;;;;;;2.72;2.05;;;16.50;93.30;16.80;100750.00;;;;4990818;27;108378;-68
2023/06/14 06:05:39;;;;;;;2.47;2.28;;;16.50;93.20;16.90;100753.00;;;;4989219;27;117820;-68
2023/06/14 06:08:08;;;;;;;1.45;1.35;;;16.70;92.50;17.00;100745.00;;;;4984028;28;88460;-68
2023/06/14 06:10:33;;;;;;;1.83;1.20;;;16.80;92.00;17.10;100744.00;;;;4986171;28;106825;-67
2023/06/14 06:12:59;;;;;;;1.98;1.73;;;16.90;92.10;17.30;100740.00;;;;4987646;28;107697;-68
2023/06/14 06:15:25;;;;;;;2.40;1.88;;;17.10;91.70;17.50;100744.00;;;;4986570;28;90038;-67
2023/06/14 06:17:51;;;;;;;1.90;1.58;;;17.30;91.40;17.80;100749.00;;;;4987540;28;89644;-66
2023/06/14 06:20:17;;;;;;;2.03;1.67;;;17.50;91.00;18.00;100753.00;;;;4988353;28;111507;-68
2023/06/14 06:22:43;;;;;;;2.33;1.55;;;17.70;90.10;18.20;100745.00;;;;4988849;28;89153;-66
2023/06/14 06:25:09;;;;;;;1.45;1.35;;;17.90;90.00;18.40;100761.00;;;;4986677;28;88153;-66
2023/06/14 06:27:37;;;;;;;7.75;1.38;;;18.20;89.50;18.70;100750.00;;;;4986810;28;106237;-67
2023/06/14 06:30:03;;;;;;;1.88;1.75;;;18.40;88.00;18.90;100759.00;;;;4986843;28;87738;-67
2023/06/14 06:32:29;;;;;;;2.58;1.45;;;18.60;87.60;19.10;100765.00;;;;4985812;28;87176;-67
2023/06/14 06:34:55;;;;;;;1.30;1.20;;;18.90;86.10;19.40;100770.00;;;;4992584;27;88359;-66
2023/06/14 06:37:20;;;;;;;3.38;1.20;;;19.10;85.40;19.60;100769.00;;;;4986559;28;115951;-66
2023/06/14 06:39:47;;;;;;;2.22;1.48;;;19.40;84.60;19.90;100772.00;;;;4988966;27;110484;-67
2023/06/14 06:42:13;;;;;;;2.05;1.52;;;19.60;83.40;20.10;100780.00;;;;4987002;28;87850;-69
2023/06/14 06:44:38;;;;;;;2.05;1.40;;;19.80;81.10;20.30;100784.00;;;;4989075;28;89211;-67
2023/06/14 06:47:11;;;;;;;2.42;1.35;;;20.10;79.90;20.50;100774.00;;;;4987649;28;117155;-66
2023/06/14 06:49:36;;;;;;;1.10;1.08;;;20.30;77.00;20.50;100778.00;;;;4974472;28;87985;-66
2023/06/14 06:52:05;;;;;;;0.90;0.70;;;20.30;74.90;20.50;100779.00;;;;4983893;28;108140;-66
2023/06/14 06:54:32;;;;;;;1.30;0.98;;;20.40;73.00;20.40;100780.00;;;;4968041;28;88503;-68
2023/06/14 06:56:58;;;;;;;1.40;1.20;;;20.30;72.80;20.30;100788.00;;;;4989214;27;87612;-67
2023/06/14 06:59:25;;;;;;;1.73;1.55;;;20.20;71.90;20.30;100794.00;;;;4985457;28;87618;-66
2023/06/14 07:01:50;;;;;;;1.45;1.30;;;20.20;72.70;20.30;100782.00;;;;4984827;28;87763;-66
2023/06/14 07:04:16;;;;;;;1.40;1.30;;;20.10;72.10;20.20;100784.00;;;;4983011;28;109986;-66
2023/06/14 07:06:43;;;;;;;1.58;1.48;;;20.10;71.60;20.10;100790.00;;;;4986138;28;118354;-66
2023/06/14 07:09:12;;;;;;;1.67;0.85;;;20.00;71.30;20.10;100788.00;;;;4988724;27;111407;-66
2023/06/14 07:11:39;;;;;;;1.23;1.15;;;19.90;71.60;20.10;100786.00;;;;4983257;28;88059;-67
2023/06/14 07:14:05;;;;;;;2.03;1.52;;;19.90;71.30;20.10;100790.00;;;;4986415;28;88850;-67
2023/06/14 07:16:31;;;;;;;4.50;1.48;;;19.90;71.50;20.10;100796.00;;;;4991367;28;93877;-66
2023/06/14 07:18:57;;;;;;;4.72;1.25;;;19.90;71.10;20.10;100802.00;;;;4988835;28;88037;-68
2023/06/14 07:21:25;;;;;;;1.38;1.27;;;19.90;71.40;20.10;100795.00;;;;4993164;28;107700;-67
2023/06/14 07:23:52;;;;;;;2.70;1.42;;;19.90;71.30;20.10;100798.00;;;;4983153;28;88612;-66
2023/06/14 07:26:18;;;;;;;1.92;1.25;;;20.50;72.20;20.00;100801.00;;;;4986232;28;88966;-66
2023/06/14 07:28:46;;;;;;;1.52;1.40;;;19.80;71.50;20.10;100805.00;;;;4985113;28;95032;-67
2023/06/14 07:31:13;;;;;;;2.30;1.27;;;19.90;71.80;20.10;100812.00;;;;4986594;28;87782;-68
2023/06/14 07:33:40;;;;;;;2.13;1.20;;;19.90;71.20;20.00;100815.00;;;;4971715;28;87940;-68
2023/06/14 07:36:06;;;;;;;1.10;1.00;;;19.80;69.60;20.00;100819.00;;;;4970376;28;104789;-67
2023/06/14 07:38:31;;;;;;;2.20;1.30;;;19.70;69.40;19.90;100825.00;;;;4986673;27;88003;-67
2023/06/14 07:40:57;;;;;;;3.00;1.52;;;19.70;69.70;19.90;100822.00;;;;4986359;28;108229;-68
2023/06/14 07:43:23;;;;;;;1.60;1.50;;;19.70;70.00;19.90;100815.00;;;;4980250;28;117956;-66
2023/06/14 07:45:48;;;;;;;1.38;1.27;;;19.70;70.00;19.90;100820.00;;;;4989195;28;116879;-68
2023/06/14 07:48:14;;;;;;;1.67;1.25;;;19.70;70.20;19.90;100824.00;;;;4985623;28;110437;-68
2023/06/14 07:50:40;;;;;;;2.28;1.65;;;19.70;69.90;19.80;100828.00;;;;4989172;28;87873;-66
2023/06/14 07:53:06;;;;;;;3.53;1.55;;;19.60;69.40;19.70;100827.00;;;;4984894;28;89078;-65
2023/06/14 07:55:33;;;;;;;1.33;1.20;;;19.50;69.70;19.70;100832.00;;;;4988575;28;89017;-67
2023/06/14 07:57:59;;;;;;;2.78;1.02;;;19.50;69.90;19.70;100829.00;;;;4989948;27;87793;-67
2023/06/14 08:00:24;;;;;;;1.25;1.15;;;19.40;70.00;19.80;100832.00;;;;4986774;28;108364;-66
2023/06/14 08:02:51;;;;;;;1.55;1.20;;;19.50;70.00;19.80;100826.00;;;;4986801;27;116711;-68
2023/06/14 08:05:17;;;;;;;1.10;1.00;;;19.50;70.20;19.80;100823.00;;;;4985544;28;88747;-66
2023/06/14 08:07:43;;;;;;;3.10;1.50;;;19.60;70.50;19.90;100825.00;;;;4984709;27;101184;-67
2023/06/14 08:10:09;;;;;;;1.33;1.10;;;19.70;70.00;20.00;100826.00;;;;4988812;28;108519;-67
2023/06/14 08:12:35;;;;;;;3.25;2.22;;;19.70;69.80;20.10;100822.00;;;;4985197;28;88866;-67
2023/06/14 08:15:01;;;;;;;1.30;1.20;;;19.80;69.10;20.10;100830.00;;;;4961875;28;94868;-67
2023/06/14 08:17:26;;;;;;;1.45;0.82;;;19.90;68.30;20.10;100825.00;;;;4987054;28;88734;-68
2023/06/14 08:19:57;;;;;;;2.97;1.38;;;19.80;68.00;20.20;100833.00;;;;4984481;28;107817;-68
2023/06/14 08:22:24;;;;;;;1.23;1.02;;;19.90;68.60;20.40;100837.00;;;;4983336;28;89064;-69
2023/06/14 08:24:50;;;;;;;1.15;0.90;;;20.00;68.80;20.70;100835.00;;;;4989555;28;88270;-67
2023/06/14 08:27:16;;;;;;;3.33;1.67;;;20.30;68.40;21.10;100839.00;;;;4985377;28;98849;-68
2023/06/14 08:29:42;;;;;;;2.17;1.17;;;20.70;66.70;21.40;100835.00;;;;4984748;28;107690;-67
2023/06/14 08:32:08;;;;;;;2.55;1.58;;;21.00;66.30;21.70;100838.00;;;;4987389;28;87947;-68
2023/06/14 08:34:33;;;;;;;1.50;1.08;;;21.30;64.50;21.80;100832.00;;;;4987114;28;88371;-69
2023/06/14 08:36:59;;;;;;;1.50;0.82;;;21.40;63.60;21.90;100826.00;;;;4988197;27;108467;-68
2023/06/14 08:39:24;;;;;;;1.80;0.93;;;21.60;62.50;22.00;100833.00;;;;4986577;27;94324;-67
2023/06/14 08:41:52;;;;;;;2.55;1.10;;;21.70;61.20;22.00;100831.00;;;;4983941;28;89719;-67
2023/06/14 08:44:18;;;;;;;1.88;1.23;;;21.70;60.90;21.90;100828.00;;;;4985358;28;89769;-67
2023/06/14 08:46:44;;;;;;;2.30;1.00;;;21.70;59.60;21.80;100827.00;;;;4986286;28;87930;-68
2023/06/14 08:49:12;;;;;;;1.10;1.00;;;21.60;59.40;21.80;100825.00;;;;4968759;28;88340;-69
2023/06/14 08:51:40;;;;;;;1.20;1.10;;;21.60;59.10;21.70;100831.00;;;;4985557;28;88979;-67
2023/06/14 08:54:06;;;;;;;1.13;0.95;;;21.40;59.20;21.60;100824.00;;;;4970407;28;88191;-69
2023/06/14 08:56:33;;;;;;;1.83;1.33;;;21.40;59.80;21.70;100820.00;;;;4984860;27;87914;-68
2023/06/14 08:59:06;;;;;;;1.10;1.00;;;21.40;59.70;21.80;100825.00;;;;4984912;28;86929;-68
2023/06/14 09:01:36;;;;;;;0.95;0.70;;;21.50;59.80;22.00;100814.00;;;;4985502;28;88842;-69
2023/06/14 09:04:04;;;;;;;1.55;0.98;;;21.70;59.70;22.10;100817.00;;;;4989916;28;88121;-69
2023/06/14 09:06:30;;;;;;;1.25;1.15;;;21.80;59.50;22.30;100815.00;;;;4992531;28;88618;-69
2023/06/14 09:08:57;;;;;;;1.05;0.90;;;22.00;59.60;22.60;100818.00;;;;4987367;28;99520;-68
2023/06/14 09:11:23;;;;;;;0.90;0.90;;;22.20;59.60;22.90;100820.00;;;;4976684;28;88016;-69
2023/06/14 09:13:50;;;;;;;1.45;1.15;;;22.50;59.00;23.30;100824.00;;;;4967643;28;116255;-67
2023/06/14 09:16:16;;;;;;;1.63;1.13;;;22.80;58.90;23.50;100822.00;;;;4987226;28;101688;-68
2023/06/14 09:18:49;;;;;;;3.88;1.10;;;23.10;58.60;23.80;100820.00;;;;4983483;28;88280;-69
2023/06/14 09:21:21;;;;;;;4.30;1.23;;;23.40;58.20;24.10;100822.00;;;;4988365;28;88933;-68
2023/06/14 09:23:48;;;;;;;2.78;1.45;;;23.70;57.70;24.40;100824.00;;;;4987392;28;87879;-68
2023/06/14 09:26:19;;;;;;;1.80;1.15;;;24.00;57.10;24.70;100820.00;;;;4985689;28;87950;-68
2023/06/14 09:28:47;;;;;;;1.33;1.20;;;24.20;56.60;24.90;100830.00;;;;4985545;28;88079;-69
2023/06/14 09:31:17;;;;;;;1.35;1.02;;;24.50;56.30;25.20;100828.00;;;;4985062;28;88856;-67
2023/06/14 09:33:48;;;;;;;2.88;1.60;;;24.70;56.00;25.60;100834.00;;;;4983616;28;89607;-66
2023/06/14 09:36:22;;;;;;;1.60;1.02;;;25.10;54.50;25.60;100827.00;;;;4988051;27;87837;-67
2023/06/14 09:39:05;;;;;;;1.00;0.95;;;25.20;52.00;25.40;100823.00;;;;4986921;28;102303;-68
2023/06/14 09:41:33;;;;;;;1.27;0.90;;;25.10;51.50;25.20;100827.00;;;;4986422;28;88366;-68
2023/06/14 09:44:03;;;;;;;1.85;1.48;;;24.90;52.00;25.20;100834.00;;;;4966804;28;88092;-68
2023/06/14 09:46:30;;;;;;;1.05;0.95;;;24.90;52.00;25.30;100825.00;;;;4986120;28;87835;-69
2023/06/14 09:48:59;;;;;;;1.33;1.00;;;24.90;52.00;25.40;100829.00;;;;4986709;28;86918;-69
2023/06/14 09:51:26;;;;;;;1.45;1.17;;;24.90;52.20;25.50;100832.00;;;;4965167;28;88337;-68
2023/06/14 09:53:54;;;;;;;2.25;1.17;;;25.10;52.50;25.70;100827.00;;;;4982365;28;87772;-71
2023/06/14 09:56:27;;;;;;;1.60;1.20;;;25.20;52.50;26.10;100832.00;;;;4972536;28;100883;-70
2023/06/14 09:58:56;;;;;;;2.05;1.00;;;25.50;52.10;26.40;100838.00;;;;4985633;28;87802;-70
2023/06/14 10:01:27;;;;;;;1.33;1.08;;;25.80;51.40;26.60;100822.00;;;;4985807;28;88757;-70
2023/06/14 10:04:02;;;;;;;1.60;1.17;;;26.10;51.20;26.60;100833.00;;;;4969991;28;88171;-72
2023/06/14 10:06:29;;;;;;;1.20;1.10;;;26.20;50.60;26.30;100835.00;;;;4969312;28;100539;-68
2023/06/14 10:09:01;;;;;;;1.77;1.45;;;26.00;49.80;25.80;100838.00;;;;4967511;28;87820;-69
2023/06/14 10:11:28;;;;;;;1.40;1.30;;;25.70;50.30;25.30;100838.00;;;;4987437;28;88815;-68
2023/06/14 10:13:56;;;;;;;2.40;1.60;;;25.20;50.60;24.80;100845.00;;;;4986278;28;110837;-69
2023/06/14 10:16:36;;;;;;;1.45;1.10;;;24.80;51.60;24.30;100838.00;;;;4974940;28;88013;-68
2023/06/14 10:19:19;;;;;;;2.63;1.00;;;24.30;52.20;23.90;100834.00;;;;4988685;28;87710;-67
2023/06/14 10:22:02;;;;;;;1.10;1.05;;;23.90;53.10;23.50;100848.00;;;;4968001;28;89110;-66
2023/06/14 10:24:35;;;;;;;2.53;1.25;;;23.50;53.80;23.30;100843.00;;;;4989480;28;89062;-67
2023/06/14 10:27:00;;;;;;;2.00;1.80;;;23.20;54.70;23.20;100837.00;;;;4972381;28;87834;-68
2023/06/14 10:29:31;;;;;;;2.50;2.08;;;23.00;55.40;22.90;100838.00;;;;4988500;28;87631;-67
2023/06/14 10:31:59;;;;;;;3.10;1.67;;;22.80;56.40;22.90;100826.00;;;;4986531;28;88796;-68
2023/06/14 10:34:28;;;;;;;5.32;1.75;;;22.70;57.00;23.10;100831.00;;;;4973662;28;88162;-68
2023/06/14 10:37:02;;;;;;;2.13;1.25;;;22.80;57.40;23.30;100828.00;;;;4989571;28;88025;-69
2023/06/14 10:39:28;;;;;;;1.30;1.20;;;22.90;57.10;23.40;100827.00;;;;4990890;28;86892;-69
2023/06/14 10:41:56;;;;;;;1.80;1.25;;;23.00;56.20;23.60;100819.00;;;;4991395;28;110378;-68
2023/06/14 10:44:21;;;;;;;2.00;1.05;;;23.10;55.60;23.60;100822.00;;;;4987230;28;87773;-70
2023/06/14 10:46:49;;;;;;;2.75;1.23;;;23.20;55.40;23.70;100821.00;;;;4972158;28;103899;-70